sensor_id;sensor_type;location;lat;lon;timestamp;P1;durP1;ratioP1;P2;durP2;ratioP2
67566;SDS011;54394;53.540;49.402;2022-07-01T00:00:54;8.32;;;2.47;;
67566;SDS011;54394;53.540;49.402;2022-07-01T00:03:20;5.25;;;2.25;;
67566;SDS011;54394;53.540;49.402;2022-07-01T00:33:28;4.85;;;1.70;;
67566;SDS011;54394;53.540;49.402;2022-07-01T00:35:54;4.28;;;2.28;;
67566;SDS011;54394;53.540;49.402;2022-07-01T00:38:20;6.95;;;2.00;;
67566;SDS011;54394;53.540;49.402;2022-07-01T00:40:53;8.18;;;2.22;;
67566;SDS011;54394;53.540;49.402;2022-07-01T00:43:20;2.40;;;2.00;;
67566;SDS011;54394;53.540;49.402;2022-07-01T00:45:50;12.45;;;3.20;;
67566;SDS011;54394;53.540;49.402;2022-07-01T00:48:17;4.68;;;2.35;;
67566;SDS011;54394;53.540;49.402;2022-07-01T00:50:44;2.97;;;2.05;;
67566;SDS011;54394;53.540;49.402;2022-07-01T00:53:11;4.47;;;1.87;;
67566;SDS011;54394;53.540;49.402;2022-07-01T00:55:37;3.28;;;2.15;;
67566;SDS011;54394;53.540;49.402;2022-07-01T00:58:03;5.10;;;2.35;;
67566;SDS011;54394;53.540;49.402;2022-07-01T01:00:30;2.95;;;2.10;;
67566;SDS011;54394;53.540;49.402;2022-07-01T01:02:56;6.93;;;2.05;;
67566;SDS011;54394;53.540;49.402;2022-07-01T01:05:22;7.95;;;2.10;;
67566;SDS011;54394;53.540;49.402;2022-07-01T01:07:50;4.07;;;2.22;;
67566;SDS011;54394;53.540;49.402;2022-07-01T01:10:17;6.72;;;2.80;;
67566;SDS011;54394;53.540;49.402;2022-07-01T01:12:43;5.78;;;2.50;;
67566;SDS011;54394;53.540;49.402;2022-07-01T01:15:10;6.82;;;2.72;;
67566;SDS011;54394;53.540;49.402;2022-07-01T01:17:36;5.65;;;2.75;;
67566;SDS011;54394;53.540;49.402;2022-07-01T01:20:05;11.02;;;3.03;;
67566;SDS011;54394;53.540;49.402;2022-07-01T01:22:31;5.40;;;2.20;;
67566;SDS011;54394;53.540;49.402;2022-07-01T01:24:58;6.87;;;2.22;;
67566;SDS011;54394;53.540;49.402;2022-07-01T01:27:24;2.47;;;1.65;;
67566;SDS011;54394;53.540;49.402;2022-07-01T01:29:50;4.00;;;2.08;;
67566;SDS011;54394;53.540;49.402;2022-07-01T01:32:17;6.53;;;2.30;;
67566;SDS011;54394;53.540;49.402;2022-07-01T01:34:43;10.40;;;2.60;;
67566;SDS011;54394;53.540;49.402;2022-07-01T01:37:09;2.08;;;1.08;;
67566;SDS011;54394;53.540;49.402;2022-07-01T01:39:35;1.58;;;1.35;;
67566;SDS011;54394;53.540;49.402;2022-07-01T01:42:04;6.05;;;1.98;;
67566;SDS011;54394;53.540;49.402;2022-07-01T01:44:31;3.45;;;1.20;;
67566;SDS011;54394;53.540;49.402;2022-07-01T01:46:57;2.65;;;1.85;;
67566;SDS011;54394;53.540;49.402;2022-07-01T01:49:23;8.95;;;2.65;;
67566;SDS011;54394;53.540;49.402;2022-07-01T01:51:49;3.47;;;2.08;;
67566;SDS011;54394;53.540;49.402;2022-07-01T01:54:15;4.22;;;2.25;;
67566;SDS011;54394;53.540;49.402;2022-07-01T01:56:42;1.90;;;1.40;;
67566;SDS011;54394;53.540;49.402;2022-07-01T01:59:08;1.27;;;1.17;;
67566;SDS011;54394;53.540;49.402;2022-07-01T02:01:34;1.45;;;1.35;;
67566;SDS011;54394;53.540;49.402;2022-07-01T02:04:00;3.37;;;2.00;;
67566;SDS011;54394;53.540;49.402;2022-07-01T02:06:26;6.22;;;2.50;;
67566;SDS011;54394;53.540;49.402;2022-07-01T02:08:52;7.87;;;3.80;;
67566;SDS011;54394;53.540;49.402;2022-07-01T02:11:18;16.98;;;4.35;;
67566;SDS011;54394;53.540;49.402;2022-07-01T02:13:44;10.98;;;5.65;;
67566;SDS011;54394;53.540;49.402;2022-07-01T02:16:10;16.83;;;9.02;;
67566;SDS011;54394;53.540;49.402;2022-07-01T02:18:37;14.40;;;7.95;;
67566;SDS011;54394;53.540;49.402;2022-07-01T02:21:03;43.78;;;17.08;;
67566;SDS011;54394;53.540;49.402;2022-07-01T02:23:29;46.25;;;16.85;;
67566;SDS011;54394;53.540;49.402;2022-07-01T02:25:55;44.55;;;13.70;;
67566;SDS011;54394;53.540;49.402;2022-07-01T02:28:21;27.98;;;6.90;;
67566;SDS011;54394;53.540;49.402;2022-07-01T02:30:47;11.50;;;4.20;;
67566;SDS011;54394;53.540;49.402;2022-07-01T02:33:13;12.48;;;4.87;;
67566;SDS011;54394;53.540;49.402;2022-07-01T02:35:39;11.88;;;3.42;;
67566;SDS011;54394;53.540;49.402;2022-07-01T02:38:06;8.90;;;2.97;;
67566;SDS011;54394;53.540;49.402;2022-07-01T02:40:35;11.38;;;3.47;;
67566;SDS011;54394;53.540;49.402;2022-07-01T02:43:06;5.45;;;2.35;;
67566;SDS011;54394;53.540;49.402;2022-07-01T02:45:32;5.20;;;2.20;;
67566;SDS011;54394;53.540;49.402;2022-07-01T02:47:59;9.65;;;2.30;;
67566;SDS011;54394;53.540;49.402;2022-07-01T02:50:27;6.05;;;2.28;;
67566;SDS011;54394;53.540;49.402;2022-07-01T02:52:53;8.55;;;2.90;;
67566;SDS011;54394;53.540;49.402;2022-07-01T02:55:19;5.30;;;2.42;;
67566;SDS011;54394;53.540;49.402;2022-07-01T02:57:46;5.85;;;2.55;;
67566;SDS011;54394;53.540;49.402;2022-07-01T03:00:14;4.45;;;3.03;;
67566;SDS011;54394;53.540;49.402;2022-07-01T03:02:41;5.53;;;2.80;;
67566;SDS011;54394;53.540;49.402;2022-07-01T03:05:07;4.35;;;2.58;;
67566;SDS011;54394;53.540;49.402;2022-07-01T03:07:37;6.15;;;2.67;;
67566;SDS011;54394;53.540;49.402;2022-07-01T03:10:04;6.12;;;2.75;;
67566;SDS011;54394;53.540;49.402;2022-07-01T03:12:34;4.80;;;2.83;;
67566;SDS011;54394;53.540;49.402;2022-07-01T03:15:01;8.82;;;2.40;;
67566;SDS011;54394;53.540;49.402;2022-07-01T03:17:34;3.60;;;1.90;;
67566;SDS011;54394;53.540;49.402;2022-07-01T03:20:01;2.62;;;1.90;;
67566;SDS011;54394;53.540;49.402;2022-07-01T03:22:29;3.03;;;2.45;;
67566;SDS011;54394;53.540;49.402;2022-07-01T03:24:56;3.60;;;2.20;;
67566;SDS011;54394;53.540;49.402;2022-07-01T03:27:22;3.60;;;2.12;;
67566;SDS011;54394;53.540;49.402;2022-07-01T03:29:49;2.90;;;1.80;;
67566;SDS011;54394;53.540;49.402;2022-07-01T03:32:15;3.85;;;1.98;;
67566;SDS011;54394;53.540;49.402;2022-07-01T03:34:43;5.43;;;2.12;;
67566;SDS011;54394;53.540;49.402;2022-07-01T03:37:10;3.97;;;2.35;;
67566;SDS011;54394;53.540;49.402;2022-07-01T03:39:38;2.28;;;2.00;;
67566;SDS011;54394;53.540;49.402;2022-07-01T03:42:04;3.95;;;2.40;;
67566;SDS011;54394;53.540;49.402;2022-07-01T03:44:31;4.80;;;2.05;;
67566;SDS011;54394;53.540;49.402;2022-07-01T03:46:58;7.05;;;2.10;;
67566;SDS011;54394;53.540;49.402;2022-07-01T03:49:24;4.55;;;1.90;;
67566;SDS011;54394;53.540;49.402;2022-07-01T03:51:51;2.65;;;1.87;;
67566;SDS011;54394;53.540;49.402;2022-07-01T03:54:17;2.65;;;1.90;;
67566;SDS011;54394;53.540;49.402;2022-07-01T03:57:00;3.72;;;2.00;;
67566;SDS011;54394;53.540;49.402;2022-07-01T03:59:28;3.22;;;2.08;;
67566;SDS011;54394;53.540;49.402;2022-07-01T04:01:56;2.83;;;2.15;;
67566;SDS011;54394;53.540;49.402;2022-07-01T04:04:23;2.90;;;1.70;;
67566;SDS011;54394;53.540;49.402;2022-07-01T04:06:49;2.80;;;1.90;;
67566;SDS011;54394;53.540;49.402;2022-07-01T04:09:16;2.60;;;2.05;;
67566;SDS011;54394;53.540;49.402;2022-07-01T04:11:42;1.98;;;1.60;;
67566;SDS011;54394;53.540;49.402;2022-07-01T04:14:09;3.37;;;2.10;;
67566;SDS011;54394;53.540;49.402;2022-07-01T04:16:36;2.87;;;1.90;;
67566;SDS011;54394;53.540;49.402;2022-07-01T04:19:05;2.90;;;1.83;;
67566;SDS011;54394;53.540;49.402;2022-07-01T04:21:45;2.87;;;1.90;;
67566;SDS011;54394;53.540;49.402;2022-07-01T04:24:30;4.82;;;1.70;;
67566;SDS011;54394;53.540;49.402;2022-07-01T04:26:58;1.73;;;1.62;;
67566;SDS011;54394;53.540;49.402;2022-07-01T04:29:24;2.30;;;1.80;;
67566;SDS011;54394;53.540;49.402;2022-07-01T04:31:50;3.55;;;2.35;;
67566;SDS011;54394;53.540;49.402;2022-07-01T04:34:16;2.95;;;1.95;;
67566;SDS011;54394;53.540;49.402;2022-07-01T04:36:43;3.53;;;1.70;;
67566;SDS011;54394;53.540;49.402;2022-07-01T04:39:09;3.30;;;1.85;;
67566;SDS011;54394;53.540;49.402;2022-07-01T04:41:35;4.05;;;1.80;;
67566;SDS011;54394;53.540;49.402;2022-07-01T04:44:20;2.30;;;1.95;;
67566;SDS011;54394;53.540;49.402;2022-07-01T04:46:46;6.43;;;2.20;;
67566;SDS011;54394;53.540;49.402;2022-07-01T04:49:30;2.87;;;1.87;;
67566;SDS011;54394;53.540;49.402;2022-07-01T04:51:57;2.75;;;1.70;;
67566;SDS011;54394;53.540;49.402;2022-07-01T04:54:23;3.05;;;1.98;;
67566;SDS011;54394;53.540;49.402;2022-07-01T04:56:51;3.92;;;1.98;;
67566;SDS011;54394;53.540;49.402;2022-07-01T04:59:17;3.28;;;1.87;;
67566;SDS011;54394;53.540;49.402;2022-07-01T05:01:45;8.48;;;1.90;;
67566;SDS011;54394;53.540;49.402;2022-07-01T05:04:14;3.30;;;1.85;;
67566;SDS011;54394;53.540;49.402;2022-07-01T05:06:40;2.50;;;1.98;;
67566;SDS011;54394;53.540;49.402;2022-07-01T05:09:06;3.40;;;2.00;;
67566;SDS011;54394;53.540;49.402;2022-07-01T05:11:33;2.53;;;2.30;;
67566;SDS011;54394;53.540;49.402;2022-07-01T05:13:59;3.87;;;2.28;;
67566;SDS011;54394;53.540;49.402;2022-07-01T05:16:25;3.33;;;2.25;;
67566;SDS011;54394;53.540;49.402;2022-07-01T05:18:51;3.10;;;2.08;;
67566;SDS011;54394;53.540;49.402;2022-07-01T05:21:36;4.75;;;2.20;;
67566;SDS011;54394;53.540;49.402;2022-07-01T05:24:20;2.58;;;1.90;;
67566;SDS011;54394;53.540;49.402;2022-07-01T05:26:48;2.95;;;2.10;;
67566;SDS011;54394;53.540;49.402;2022-07-01T05:29:14;5.15;;;2.30;;
67566;SDS011;54394;53.540;49.402;2022-07-01T05:31:41;1.90;;;1.73;;
67566;SDS011;54394;53.540;49.402;2022-07-01T05:34:07;3.83;;;1.90;;
67566;SDS011;54394;53.540;49.402;2022-07-01T05:36:33;2.75;;;1.92;;
67566;SDS011;54394;53.540;49.402;2022-07-01T05:39:00;5.60;;;2.45;;
67566;SDS011;54394;53.540;49.402;2022-07-01T05:41:26;2.50;;;2.17;;
67566;SDS011;54394;53.540;49.402;2022-07-01T05:43:52;5.05;;;2.40;;
67566;SDS011;54394;53.540;49.402;2022-07-01T05:46:18;4.90;;;2.15;;
67566;SDS011;54394;53.540;49.402;2022-07-01T05:48:44;3.17;;;2.12;;
67566;SDS011;54394;53.540;49.402;2022-07-01T05:51:11;4.87;;;2.40;;
67566;SDS011;54394;53.540;49.402;2022-07-01T05:53:37;12.50;;;2.78;;
67566;SDS011;54394;53.540;49.402;2022-07-01T05:56:03;10.43;;;2.37;;
67566;SDS011;54394;53.540;49.402;2022-07-01T05:58:29;3.22;;;2.40;;
67566;SDS011;54394;53.540;49.402;2022-07-01T06:00:55;7.00;;;2.65;;
67566;SDS011;54394;53.540;49.402;2022-07-01T06:03:21;4.53;;;2.22;;
67566;SDS011;54394;53.540;49.402;2022-07-01T06:05:47;5.25;;;2.30;;
67566;SDS011;54394;53.540;49.402;2022-07-01T06:08:13;2.72;;;2.20;;
67566;SDS011;54394;53.540;49.402;2022-07-01T06:10:39;2.62;;;2.30;;
67566;SDS011;54394;53.540;49.402;2022-07-01T06:13:05;5.62;;;2.62;;
67566;SDS011;54394;53.540;49.402;2022-07-01T06:15:31;4.22;;;2.58;;
67566;SDS011;54394;53.540;49.402;2022-07-01T06:17:58;3.53;;;2.40;;
67566;SDS011;54394;53.540;49.402;2022-07-01T06:20:24;2.87;;;2.15;;
67566;SDS011;54394;53.540;49.402;2022-07-01T06:22:50;3.70;;;2.47;;
67566;SDS011;54394;53.540;49.402;2022-07-01T06:25:17;4.85;;;2.30;;
67566;SDS011;54394;53.540;49.402;2022-07-01T06:27:44;3.90;;;2.40;;
67566;SDS011;54394;53.540;49.402;2022-07-01T06:30:11;4.47;;;2.62;;
67566;SDS011;54394;53.540;49.402;2022-07-01T06:32:38;5.12;;;2.72;;
67566;SDS011;54394;53.540;49.402;2022-07-01T06:35:04;5.35;;;2.37;;
67566;SDS011;54394;53.540;49.402;2022-07-01T06:37:31;3.42;;;2.20;;
67566;SDS011;54394;53.540;49.402;2022-07-01T06:39:59;4.30;;;2.37;;
67566;SDS011;54394;53.540;49.402;2022-07-01T06:42:26;3.40;;;2.40;;
67566;SDS011;54394;53.540;49.402;2022-07-01T06:44:52;2.40;;;2.10;;
67566;SDS011;54394;53.540;49.402;2022-07-01T06:47:18;2.45;;;2.22;;
67566;SDS011;54394;53.540;49.402;2022-07-01T06:49:44;2.55;;;2.03;;
67566;SDS011;54394;53.540;49.402;2022-07-01T06:52:10;2.72;;;2.33;;
67566;SDS011;54394;53.540;49.402;2022-07-01T06:54:36;4.97;;;2.37;;
67566;SDS011;54394;53.540;49.402;2022-07-01T06:57:05;4.75;;;2.40;;
67566;SDS011;54394;53.540;49.402;2022-07-01T06:59:32;4.62;;;2.40;;
67566;SDS011;54394;53.540;49.402;2022-07-01T07:01:58;4.80;;;2.40;;
67566;SDS011;54394;53.540;49.402;2022-07-01T07:04:24;9.05;;;3.40;;
67566;SDS011;54394;53.540;49.402;2022-07-01T07:06:50;4.20;;;2.62;;
67566;SDS011;54394;53.540;49.402;2022-07-01T07:09:16;3.53;;;2.72;;
67566;SDS011;54394;53.540;49.402;2022-07-01T07:11:42;4.90;;;2.80;;
67566;SDS011;54394;53.540;49.402;2022-07-01T07:14:08;3.50;;;2.78;;
67566;SDS011;54394;53.540;49.402;2022-07-01T07:16:34;4.35;;;3.10;;
67566;SDS011;54394;53.540;49.402;2022-07-01T07:19:00;4.87;;;3.22;;
67566;SDS011;54394;53.540;49.402;2022-07-01T07:21:26;6.43;;;3.25;;
67566;SDS011;54394;53.540;49.402;2022-07-01T07:23:52;3.75;;;2.50;;
67566;SDS011;54394;53.540;49.402;2022-07-01T07:26:18;4.12;;;3.10;;
67566;SDS011;54394;53.540;49.402;2022-07-01T07:28:44;3.60;;;2.87;;
67566;SDS011;54394;53.540;49.402;2022-07-01T07:31:10;7.53;;;3.47;;
67566;SDS011;54394;53.540;49.402;2022-07-01T07:33:36;4.78;;;3.33;;
67566;SDS011;54394;53.540;49.402;2022-07-01T07:36:02;6.30;;;3.85;;
67566;SDS011;54394;53.540;49.402;2022-07-01T07:38:29;4.15;;;3.72;;
67566;SDS011;54394;53.540;49.402;2022-07-01T07:40:54;4.30;;;3.55;;
67566;SDS011;54394;53.540;49.402;2022-07-01T07:43:20;6.47;;;4.18;;
67566;SDS011;54394;53.540;49.402;2022-07-01T07:45:47;7.87;;;4.28;;
67566;SDS011;54394;53.540;49.402;2022-07-01T07:48:13;4.72;;;4.20;;
67566;SDS011;54394;53.540;49.402;2022-07-01T07:50:40;4.78;;;4.15;;
67566;SDS011;54394;53.540;49.402;2022-07-01T07:53:06;11.50;;;5.30;;
67566;SDS011;54394;53.540;49.402;2022-07-01T07:55:32;5.65;;;5.00;;
67566;SDS011;54394;53.540;49.402;2022-07-01T07:57:58;5.45;;;4.18;;
67566;SDS011;54394;53.540;49.402;2022-07-01T08:00:24;6.53;;;4.82;;
67566;SDS011;54394;53.540;49.402;2022-07-01T08:02:51;6.78;;;4.20;;
67566;SDS011;54394;53.540;49.402;2022-07-01T08:05:17;4.95;;;4.45;;
67566;SDS011;54394;53.540;49.402;2022-07-01T08:07:44;4.90;;;4.30;;
67566;SDS011;54394;53.540;49.402;2022-07-01T08:10:11;8.90;;;4.07;;
67566;SDS011;54394;53.540;49.402;2022-07-01T08:12:37;4.87;;;4.40;;
67566;SDS011;54394;53.540;49.402;2022-07-01T08:15:04;4.82;;;4.10;;
67566;SDS011;54394;53.540;49.402;2022-07-01T08:17:31;4.47;;;3.97;;
67566;SDS011;54394;53.540;49.402;2022-07-01T08:19:57;4.85;;;4.35;;
67566;SDS011;54394;53.540;49.402;2022-07-01T08:22:23;4.80;;;4.12;;
67566;SDS011;54394;53.540;49.402;2022-07-01T08:24:49;5.30;;;4.50;;
67566;SDS011;54394;53.540;49.402;2022-07-01T08:27:15;5.22;;;4.25;;
67566;SDS011;54394;53.540;49.402;2022-07-01T08:29:41;6.78;;;4.60;;
67566;SDS011;54394;53.540;49.402;2022-07-01T08:32:07;8.85;;;4.75;;
67566;SDS011;54394;53.540;49.402;2022-07-01T08:34:33;4.45;;;3.80;;
67566;SDS011;54394;53.540;49.402;2022-07-01T08:37:01;5.62;;;4.30;;
67566;SDS011;54394;53.540;49.402;2022-07-01T08:39:28;5.57;;;4.65;;
67566;SDS011;54394;53.540;49.402;2022-07-01T08:41:54;5.68;;;4.60;;
67566;SDS011;54394;53.540;49.402;2022-07-01T08:44:21;5.93;;;5.35;;
67566;SDS011;54394;53.540;49.402;2022-07-01T08:46:47;7.15;;;5.00;;
67566;SDS011;54394;53.540;49.402;2022-07-01T08:49:14;7.15;;;5.10;;
67566;SDS011;54394;53.540;49.402;2022-07-01T08:51:41;6.25;;;5.45;;
67566;SDS011;54394;53.540;49.402;2022-07-01T08:54:07;5.78;;;4.87;;
67566;SDS011;54394;53.540;49.402;2022-07-01T08:56:33;5.78;;;5.18;;
67566;SDS011;54394;53.540;49.402;2022-07-01T08:59:31;14.35;;;6.57;;
67566;SDS011;54394;53.540;49.402;2022-07-01T09:01:58;6.32;;;5.43;;
67566;SDS011;54394;53.540;49.402;2022-07-01T09:04:30;5.70;;;5.20;;
67566;SDS011;54394;53.540;49.402;2022-07-01T09:07:00;4.05;;;3.20;;
67566;SDS011;54394;53.540;49.402;2022-07-01T09:09:32;6.05;;;4.47;;
67566;SDS011;54394;53.540;49.402;2022-07-01T09:11:59;10.98;;;4.78;;
67566;SDS011;54394;53.540;49.402;2022-07-01T09:14:32;4.53;;;4.12;;
67566;SDS011;54394;53.540;49.402;2022-07-01T09:17:04;5.15;;;4.07;;
67566;SDS011;54394;53.540;49.402;2022-07-01T09:19:34;4.72;;;4.22;;
67566;SDS011;54394;53.540;49.402;2022-07-01T09:22:02;4.62;;;3.67;;
67566;SDS011;54394;53.540;49.402;2022-07-01T09:24:39;6.18;;;3.78;;
67566;SDS011;54394;53.540;49.402;2022-07-01T09:27:09;5.35;;;3.80;;
67566;SDS011;54394;53.540;49.402;2022-07-01T09:29:40;4.70;;;4.30;;
67566;SDS011;54394;53.540;49.402;2022-07-01T09:32:08;5.53;;;4.82;;
67566;SDS011;54394;53.540;49.402;2022-07-01T09:37:14;6.15;;;3.97;;
67566;SDS011;54394;53.540;49.402;2022-07-01T09:42:11;5.32;;;3.70;;
67566;SDS011;54394;53.540;49.402;2022-07-01T09:47:34;5.15;;;3.87;;
67566;SDS011;54394;53.540;49.402;2022-07-01T09:50:04;5.68;;;3.90;;
67566;SDS011;54394;53.540;49.402;2022-07-01T09:52:31;6.72;;;3.92;;
67566;SDS011;54394;53.540;49.402;2022-07-01T09:54:57;6.05;;;3.70;;
67566;SDS011;54394;53.540;49.402;2022-07-01T09:57:23;6.20;;;3.87;;
67566;SDS011;54394;53.540;49.402;2022-07-01T09:59:50;4.40;;;3.92;;
67566;SDS011;54394;53.540;49.402;2022-07-01T10:02:20;5.18;;;3.65;;
67566;SDS011;54394;53.540;49.402;2022-07-01T10:04:51;4.40;;;3.28;;
67566;SDS011;54394;53.540;49.402;2022-07-01T10:13:02;3.87;;;3.20;;
67566;SDS011;54394;53.540;49.402;2022-07-01T10:15:29;8.30;;;3.35;;
67566;SDS011;54394;53.540;49.402;2022-07-01T10:17:55;4.82;;;3.30;;
67566;SDS011;54394;53.540;49.402;2022-07-01T10:20:25;4.87;;;3.10;;
67566;SDS011;54394;53.540;49.402;2022-07-01T10:23:05;3.47;;;3.00;;
67566;SDS011;54394;53.540;49.402;2022-07-01T10:28:27;2.50;;;2.28;;
67566;SDS011;54394;53.540;49.402;2022-07-01T10:31:13;3.95;;;2.22;;
67566;SDS011;54394;53.540;49.402;2022-07-01T10:41:26;2.55;;;2.00;;
67566;SDS011;54394;53.540;49.402;2022-07-01T10:43:53;2.17;;;1.98;;
67566;SDS011;54394;53.540;49.402;2022-07-01T10:49:57;2.12;;;1.92;;
67566;SDS011;54394;53.540;49.402;2022-07-01T10:52:17;3.90;;;2.20;;
67566;SDS011;54394;53.540;49.402;2022-07-01T10:59:49;1.85;;;1.70;;
67566;SDS011;54394;53.540;49.402;2022-07-01T11:04:46;3.08;;;2.42;;
67566;SDS011;54394;53.540;49.402;2022-07-01T11:07:12;2.92;;;2.37;;
67566;SDS011;54394;53.540;49.402;2022-07-01T11:09:38;4.20;;;2.42;;
67566;SDS011;54394;53.540;49.402;2022-07-01T11:12:05;11.80;;;4.00;;
67566;SDS011;54394;53.540;49.402;2022-07-01T11:14:35;7.55;;;3.10;;
67566;SDS011;54394;53.540;49.402;2022-07-01T11:17:05;7.20;;;3.58;;
67566;SDS011;54394;53.540;49.402;2022-07-01T11:19:31;8.68;;;3.20;;
67566;SDS011;54394;53.540;49.402;2022-07-01T11:21:58;9.32;;;3.55;;
67566;SDS011;54394;53.540;49.402;2022-07-01T11:24:24;19.73;;;4.90;;
67566;SDS011;54394;53.540;49.402;2022-07-01T11:26:50;10.80;;;4.97;;
67566;SDS011;54394;53.540;49.402;2022-07-01T11:29:25;7.80;;;4.00;;
67566;SDS011;54394;53.540;49.402;2022-07-01T11:31:52;5.70;;;3.60;;
67566;SDS011;54394;53.540;49.402;2022-07-01T11:34:18;6.53;;;4.18;;
67566;SDS011;54394;53.540;49.402;2022-07-01T11:36:45;10.15;;;4.50;;
67566;SDS011;54394;53.540;49.402;2022-07-01T11:39:31;7.95;;;4.07;;
67566;SDS011;54394;53.540;49.402;2022-07-01T11:42:01;14.75;;;4.60;;
67566;SDS011;54394;53.540;49.402;2022-07-01T11:47:12;14.77;;;6.45;;
67566;SDS011;54394;53.540;49.402;2022-07-01T11:49:48;6.80;;;5.37;;
67566;SDS011;54394;53.540;49.402;2022-07-01T11:52:15;7.22;;;4.85;;
67566;SDS011;54394;53.540;49.402;2022-07-01T11:54:46;10.27;;;4.70;;
67566;SDS011;54394;53.540;49.402;2022-07-01T11:57:17;6.62;;;4.55;;
67566;SDS011;54394;53.540;49.402;2022-07-01T11:59:44;6.18;;;4.03;;
67566;SDS011;54394;53.540;49.402;2022-07-01T12:02:12;6.78;;;3.92;;
67566;SDS011;54394;53.540;49.402;2022-07-01T12:04:39;8.75;;;4.47;;
67566;SDS011;54394;53.540;49.402;2022-07-01T12:07:08;5.70;;;3.67;;
67566;SDS011;54394;53.540;49.402;2022-07-01T12:09:35;7.10;;;3.60;;
67566;SDS011;54394;53.540;49.402;2022-07-01T12:12:01;11.88;;;5.05;;
67566;SDS011;54394;53.540;49.402;2022-07-01T12:14:28;8.38;;;4.07;;
67566;SDS011;54394;53.540;49.402;2022-07-01T12:16:57;10.25;;;4.75;;
67566;SDS011;54394;53.540;49.402;2022-07-01T12:19:27;10.00;;;5.15;;
67566;SDS011;54394;53.540;49.402;2022-07-01T12:22:08;16.40;;;5.65;;
67566;SDS011;54394;53.540;49.402;2022-07-01T12:24:35;10.77;;;4.80;;
67566;SDS011;54394;53.540;49.402;2022-07-01T12:32:13;9.65;;;5.45;;
67566;SDS011;54394;53.540;49.402;2022-07-01T12:34:41;16.52;;;8.18;;
67566;SDS011;54394;53.540;49.402;2022-07-01T12:37:15;20.85;;;9.65;;
67566;SDS011;54394;53.540;49.402;2022-07-01T12:39:50;14.63;;;7.10;;
67566;SDS011;54394;53.540;49.402;2022-07-01T12:45:02;9.23;;;4.47;;
67566;SDS011;54394;53.540;49.402;2022-07-01T12:52:36;13.95;;;6.78;;
67566;SDS011;54394;53.540;49.402;2022-07-01T12:55:13;20.15;;;8.65;;
67566;SDS011;54394;53.540;49.402;2022-07-01T12:57:42;13.82;;;5.25;;
67566;SDS011;54394;53.540;49.402;2022-07-01T13:00:09;13.90;;;4.80;;
67566;SDS011;54394;53.540;49.402;2022-07-01T13:02:35;16.33;;;4.55;;
67566;SDS011;54394;53.540;49.402;2022-07-01T13:05:01;8.52;;;4.03;;
67566;SDS011;54394;53.540;49.402;2022-07-01T13:07:27;12.25;;;5.07;;
67566;SDS011;54394;53.540;49.402;2022-07-01T13:09:53;8.05;;;3.72;;
67566;SDS011;54394;53.540;49.402;2022-07-01T13:12:19;10.95;;;4.97;;
67566;SDS011;54394;53.540;49.402;2022-07-01T13:14:45;16.37;;;7.40;;
67566;SDS011;54394;53.540;49.402;2022-07-01T13:17:11;13.85;;;6.20;;
67566;SDS011;54394;53.540;49.402;2022-07-01T13:19:37;7.60;;;3.75;;
67566;SDS011;54394;53.540;49.402;2022-07-01T13:22:03;7.40;;;3.62;;
67566;SDS011;54394;53.540;49.402;2022-07-01T13:24:31;13.25;;;4.28;;
67566;SDS011;54394;53.540;49.402;2022-07-01T13:26:57;5.25;;;2.92;;
67566;SDS011;54394;53.540;49.402;2022-07-01T13:29:23;6.65;;;2.58;;
67566;SDS011;54394;53.540;49.402;2022-07-01T13:31:49;3.55;;;2.25;;
67566;SDS011;54394;53.540;49.402;2022-07-01T13:34:15;3.60;;;2.50;;
67566;SDS011;54394;53.540;49.402;2022-07-01T13:36:41;4.82;;;3.08;;
67566;SDS011;54394;53.540;49.402;2022-07-01T13:39:07;12.60;;;2.97;;
67566;SDS011;54394;53.540;49.402;2022-07-01T13:41:34;3.33;;;2.70;;
67566;SDS011;54394;53.540;49.402;2022-07-01T13:44:01;6.28;;;2.90;;
67566;SDS011;54394;53.540;49.402;2022-07-01T13:46:27;5.40;;;2.70;;
67566;SDS011;54394;53.540;49.402;2022-07-01T13:48:53;5.70;;;2.40;;
67566;SDS011;54394;53.540;49.402;2022-07-01T13:51:19;7.45;;;3.15;;
67566;SDS011;54394;53.540;49.402;2022-07-01T13:53:45;6.28;;;2.83;;
67566;SDS011;54394;53.540;49.402;2022-07-01T13:56:11;7.35;;;2.90;;
67566;SDS011;54394;53.540;49.402;2022-07-01T13:58:37;7.55;;;3.05;;
67566;SDS011;54394;53.540;49.402;2022-07-01T14:01:03;6.20;;;2.92;;
67566;SDS011;54394;53.540;49.402;2022-07-01T14:03:29;3.55;;;2.45;;
67566;SDS011;54394;53.540;49.402;2022-07-01T14:05:55;2.58;;;1.98;;
67566;SDS011;54394;53.540;49.402;2022-07-01T14:08:21;5.18;;;2.40;;
67566;SDS011;54394;53.540;49.402;2022-07-01T14:10:47;3.95;;;2.83;;
67566;SDS011;54394;53.540;49.402;2022-07-01T14:13:13;4.18;;;2.25;;
67566;SDS011;54394;53.540;49.402;2022-07-01T14:15:39;5.87;;;2.30;;
67566;SDS011;54394;53.540;49.402;2022-07-01T14:18:05;4.50;;;1.92;;
67566;SDS011;54394;53.540;49.402;2022-07-01T14:20:31;10.02;;;2.35;;
67566;SDS011;54394;53.540;49.402;2022-07-01T14:22:57;3.78;;;2.30;;
67566;SDS011;54394;53.540;49.402;2022-07-01T14:25:23;4.87;;;2.12;;
67566;SDS011;54394;53.540;49.402;2022-07-01T14:27:49;4.47;;;2.37;;
67566;SDS011;54394;53.540;49.402;2022-07-01T14:30:15;2.67;;;2.08;;
67566;SDS011;54394;53.540;49.402;2022-07-01T14:32:41;5.30;;;2.30;;
67566;SDS011;54394;53.540;49.402;2022-07-01T14:35:08;4.05;;;2.20;;
67566;SDS011;54394;53.540;49.402;2022-07-01T14:37:34;5.10;;;2.70;;
67566;SDS011;54394;53.540;49.402;2022-07-01T14:40:02;2.87;;;1.95;;
67566;SDS011;54394;53.540;49.402;2022-07-01T14:42:29;6.47;;;2.65;;
67566;SDS011;54394;53.540;49.402;2022-07-01T14:44:55;6.95;;;2.53;;
67566;SDS011;54394;53.540;49.402;2022-07-01T14:47:22;5.32;;;2.58;;
67566;SDS011;54394;53.540;49.402;2022-07-01T14:49:49;4.15;;;2.35;;
67566;SDS011;54394;53.540;49.402;2022-07-01T14:52:17;4.57;;;2.85;;
67566;SDS011;54394;53.540;49.402;2022-07-01T14:54:43;5.37;;;2.90;;
67566;SDS011;54394;53.540;49.402;2022-07-01T14:57:09;3.20;;;2.90;;
67566;SDS011;54394;53.540;49.402;2022-07-01T14:59:35;4.68;;;3.05;;
67566;SDS011;54394;53.540;49.402;2022-07-01T15:02:02;5.93;;;3.10;;
67566;SDS011;54394;53.540;49.402;2022-07-01T15:04:32;5.65;;;3.08;;
67566;SDS011;54394;53.540;49.402;2022-07-01T15:06:58;4.57;;;2.75;;
67566;SDS011;54394;53.540;49.402;2022-07-01T15:09:25;6.20;;;3.03;;
67566;SDS011;54394;53.540;49.402;2022-07-01T15:11:51;4.80;;;3.28;;
67566;SDS011;54394;53.540;49.402;2022-07-01T15:14:18;9.00;;;3.08;;
67566;SDS011;54394;53.540;49.402;2022-07-01T15:16:44;5.72;;;2.53;;
67566;SDS011;54394;53.540;49.402;2022-07-01T15:19:10;4.25;;;1.85;;
67566;SDS011;54394;53.540;49.402;2022-07-01T15:21:37;4.37;;;2.45;;
67566;SDS011;54394;53.540;49.402;2022-07-01T15:24:03;3.85;;;2.10;;
67566;SDS011;54394;53.540;49.402;2022-07-01T15:26:29;2.60;;;2.12;;
67566;SDS011;54394;53.540;49.402;2022-07-01T15:28:55;2.85;;;2.00;;
67566;SDS011;54394;53.540;49.402;2022-07-01T15:31:21;2.90;;;2.35;;
67566;SDS011;54394;53.540;49.402;2022-07-01T15:33:48;2.65;;;2.45;;
67566;SDS011;54394;53.540;49.402;2022-07-01T15:36:14;3.50;;;2.35;;
67566;SDS011;54394;53.540;49.402;2022-07-01T15:38:42;2.62;;;2.25;;
67566;SDS011;54394;53.540;49.402;2022-07-01T15:41:09;3.97;;;2.40;;
67566;SDS011;54394;53.540;49.402;2022-07-01T15:43:35;4.72;;;2.30;;
67566;SDS011;54394;53.540;49.402;2022-07-01T15:46:02;4.25;;;2.60;;
67566;SDS011;54394;53.540;49.402;2022-07-01T15:48:28;3.47;;;2.67;;
67566;SDS011;54394;53.540;49.402;2022-07-01T15:50:55;5.00;;;2.70;;
67566;SDS011;54394;53.540;49.402;2022-07-01T15:53:21;7.00;;;2.85;;